createdAt,value
2023-01-21T00:01:05.745Z,99.80
2023-01-21T00:04:07.371Z,99.50
2023-01-21T00:07:09.514Z,99.90
2023-01-21T00:10:11.052Z,99.90
2023-01-21T00:13:12.932Z,99.90
2023-01-21T00:16:14.833Z,99.90
2023-01-21T00:19:16.380Z,99.90
2023-01-21T00:22:17.915Z,99.90
2023-01-21T00:25:19.799Z,99.90
2023-01-21T00:28:21.282Z,99.90
2023-01-21T00:31:22.891Z,99.90
2023-01-21T00:34:24.553Z,99.90
2023-01-21T00:37:26.058Z,99.90
2023-01-21T00:40:27.555Z,99.90
2023-01-21T00:43:29.392Z,99.90
2023-01-21T00:46:31.362Z,99.90
2023-01-21T00:49:32.929Z,99.90
2023-01-21T00:52:34.466Z,99.90
2023-01-21T00:55:35.964Z,99.90
2023-01-21T00:58:37.966Z,99.90
2023-01-21T01:01:39.733Z,99.90
2023-01-21T01:04:41.280Z,99.80
2023-01-21T01:07:43.371Z,99.90
2023-01-21T01:10:44.860Z,99.80
2023-01-21T01:13:46.311Z,99.80
2023-01-21T01:16:48.456Z,99.90
2023-01-21T01:19:49.929Z,99.90
2023-01-21T01:22:51.398Z,99.90
2023-01-21T01:26:12.924Z,99.90
2023-01-21T01:29:14.424Z,99.40
2023-01-21T01:32:15.913Z,99.90
2023-01-21T01:35:17.383Z,99.90
2023-01-21T01:38:22.188Z,99.90
2023-01-21T01:41:24.817Z,99.90
2023-01-21T01:44:46.553Z,99.90
2023-01-21T01:47:58.079Z,99.90
2023-01-21T01:51:01.895Z,99.20
2023-01-21T01:54:04.725Z,99.80
2023-01-21T01:57:08.609Z,99.80
2023-01-21T02:00:11.145Z,99.80
2023-01-21T02:03:31.855Z,99.10
2023-01-21T02:06:33.947Z,99.90
2023-01-21T02:09:35.557Z,99.80
2023-01-21T02:12:38.217Z,99.80
2023-01-21T02:15:58.666Z,99.80
2023-01-21T02:19:26.563Z,99.20
2023-01-21T02:22:34.057Z,99.20
2023-01-21T02:25:47.411Z,99.70
2023-01-21T02:28:57.961Z,99.30
2023-01-21T02:31:59.409Z,99.40
2023-01-21T02:35:04.236Z,99.80
2023-01-21T02:38:29.069Z,99.90
2023-01-21T02:41:42.753Z,99.40
2023-01-21T02:45:10.599Z,99.30
2023-01-21T02:48:14.732Z,99.50
2023-01-21T02:51:18.250Z,99.90
2023-01-21T02:54:38.430Z,99.90
2023-01-21T02:57:43.268Z,99.30
2023-01-21T03:01:02.833Z,99.90
2023-01-21T03:04:04.351Z,99.30
2023-01-21T03:07:25.979Z,99.90
2023-01-21T03:10:31.776Z,99.40
2023-01-21T03:13:54.541Z,99.90
2023-01-21T03:17:01.954Z,99.90
2023-01-21T03:20:24.431Z,99.40
2023-01-21T03:23:29.517Z,99.40
2023-01-21T03:26:32.951Z,99.90
2023-01-21T03:29:35.010Z,99.90
2023-01-21T03:32:37.192Z,99.90
2023-01-21T03:35:41.470Z,99.90
2023-01-21T03:38:45.106Z,99.90
2023-01-21T03:41:47.166Z,99.90
2023-01-21T03:44:48.722Z,99.90
2023-01-21T03:47:53.455Z,99.80
2023-01-21T03:51:03.366Z,99.90
2023-01-21T03:54:04.890Z,99.30
2023-01-21T03:57:06.486Z,99.90
2023-01-21T04:00:08.443Z,99.90
2023-01-21T04:03:09.897Z,99.90
2023-01-21T04:06:15.099Z,99.90
2023-01-21T04:09:16.602Z,99.30
2023-01-21T04:12:18.131Z,99.90
2023-01-21T04:15:19.617Z,99.90
2023-01-21T04:18:21.147Z,99.90
2023-01-21T04:21:22.676Z,99.90
2023-01-21T04:24:24.151Z,99.90
2023-01-21T04:27:25.662Z,99.90
2023-01-21T04:30:34.401Z,99.90
2023-01-21T04:33:35.912Z,99.90
2023-01-21T04:36:37.450Z,99.90
2023-01-21T04:39:38.932Z,99.90
2023-01-21T04:42:42.074Z,99.90
2023-01-21T04:45:43.549Z,99.90
2023-01-21T04:48:45.075Z,99.90
2023-01-21T04:51:46.541Z,99.90
2023-01-21T04:54:48.009Z,99.90
2023-01-21T04:57:49.484Z,99.90
2023-01-21T05:00:52.181Z,99.90
2023-01-21T05:03:53.776Z,99.90
2023-01-21T05:06:56.033Z,99.90
2023-01-21T05:09:57.623Z,99.90
2023-01-21T05:12:59.357Z,99.90
2023-01-21T05:16:05.227Z,99.90
2023-01-21T05:19:06.766Z,99.50
2023-01-21T05:22:08.260Z,99.90
2023-01-21T05:25:09.741Z,99.90
2023-01-21T05:28:11.233Z,99.90
2023-01-21T05:31:12.857Z,99.90
2023-01-21T05:34:14.419Z,99.90
2023-01-21T05:37:15.905Z,99.90
2023-01-21T05:40:18.181Z,99.90
2023-01-21T05:43:19.845Z,99.90
2023-01-21T05:46:21.395Z,99.90
2023-01-21T05:49:22.969Z,99.90
2023-01-21T05:52:24.525Z,99.90
2023-01-21T05:55:26.086Z,99.90
2023-01-21T05:58:27.567Z,99.90
2023-01-21T06:01:29.077Z,99.90
2023-01-21T06:04:30.802Z,99.90
2023-01-21T06:07:32.357Z,99.90
2023-01-21T06:10:33.905Z,99.90
2023-01-21T06:13:35.443Z,99.90
2023-01-21T06:16:36.920Z,99.90
2023-01-21T06:19:38.433Z,99.90
2023-01-21T06:22:39.963Z,99.90
2023-01-21T06:25:43.404Z,99.90
2023-01-21T06:28:44.891Z,99.90
2023-01-21T06:31:46.521Z,99.90
2023-01-21T06:34:48.168Z,99.90
2023-01-21T06:37:49.951Z,99.90
2023-01-21T06:40:51.420Z,99.90
2023-01-21T06:43:52.907Z,99.90
2023-01-21T06:47:02.139Z,99.90
2023-01-21T06:50:03.924Z,99.90
2023-01-21T06:53:05.412Z,99.90
2023-01-21T06:56:07.078Z,99.90
2023-01-21T06:59:08.539Z,99.90
2023-01-21T07:02:12.047Z,99.90
2023-01-21T07:05:15.026Z,99.90
2023-01-21T07:08:16.844Z,99.90
2023-01-21T07:11:18.307Z,99.90
2023-01-21T07:14:19.798Z,99.90
2023-01-21T07:17:21.671Z,99.90
2023-01-21T07:20:23.147Z,99.90
2023-01-21T07:23:24.777Z,99.90
2023-01-21T07:26:26.299Z,99.90
2023-01-21T07:29:28.642Z,99.90
2023-01-21T07:32:30.254Z,99.90
2023-01-21T07:35:31.729Z,99.70
2023-01-21T07:38:33.232Z,99.90
2023-01-21T07:41:34.704Z,99.80
2023-01-21T07:44:36.180Z,99.70
2023-01-21T07:47:37.688Z,99.70
2023-01-21T07:50:39.198Z,99.50
2023-01-21T07:53:40.716Z,99.50
2023-01-21T07:56:42.603Z,99.40
2023-01-21T07:59:44.139Z,99.70
2023-01-21T08:02:45.860Z,99.30
2023-01-21T08:05:47.386Z,99.30
2023-01-21T08:08:48.888Z,99.30
2023-01-21T08:11:50.896Z,99.30
2023-01-21T08:14:52.392Z,99.40
2023-01-21T08:17:53.914Z,99.40
2023-01-21T08:20:56.120Z,99.40
2023-01-21T08:23:57.601Z,99.40
2023-01-21T08:26:59.814Z,99.30
2023-01-21T08:30:01.288Z,99.40
2023-01-21T08:33:04.338Z,99.20
2023-01-21T08:36:07.917Z,99.10
2023-01-21T08:39:09.917Z,99.10
2023-01-21T08:42:11.380Z,99.10
2023-01-21T08:45:15.303Z,99.10
2023-01-21T08:48:16.948Z,99.20
2023-01-21T08:51:18.557Z,99.20
2023-01-21T08:54:20.040Z,99.10
2023-01-21T08:57:21.613Z,99.20
2023-01-21T09:00:24.068Z,99.10
2023-01-21T09:03:25.650Z,99.10
2023-01-21T09:06:28.342Z,99.10
2023-01-21T09:09:29.885Z,99.10
2023-01-21T09:12:31.655Z,99.20
2023-01-21T09:15:38.381Z,99.20
2023-01-21T09:18:39.969Z,99.10
2023-01-21T09:21:41.464Z,99.10
2023-01-21T09:24:42.936Z,99.10
2023-01-21T09:27:44.630Z,99.10
2023-01-21T09:30:46.532Z,99.00
2023-01-21T09:33:49.428Z,99.10
2023-01-21T09:36:50.882Z,99.10
2023-01-21T09:39:52.430Z,99.10
2023-01-21T09:42:53.947Z,99.20
2023-01-21T09:45:58.340Z,99.10
2023-01-21T09:49:02.368Z,99.10
2023-01-21T09:52:03.827Z,99.20
2023-01-21T09:55:06.582Z,99.00
2023-01-21T09:58:08.091Z,99.00
2023-01-21T10:01:18.806Z,99.10
2023-01-21T10:04:45.377Z,98.60
2023-01-21T10:08:08.655Z,98.60
2023-01-21T10:11:10.151Z,98.40
2023-01-21T10:14:19.772Z,99.10
2023-01-21T10:17:30.415Z,99.20
2023-01-21T10:20:35.676Z,98.50
2023-01-21T10:23:48.699Z,99.20
2023-01-21T10:26:52.361Z,98.50
2023-01-21T10:29:57.699Z,99.10
2023-01-21T10:32:59.573Z,99.20
2023-01-21T10:36:01.038Z,99.10
2023-01-21T10:39:21.870Z,99.00
2023-01-21T10:42:52.833Z,98.40
2023-01-21T10:45:58.531Z,98.30
2023-01-21T10:49:10.817Z,99.00
2023-01-21T10:52:17.695Z,98.20
2023-01-21T10:55:24.991Z,98.20
2023-01-21T10:58:29.549Z,99.00
2023-01-21T11:01:34.560Z,98.30
2023-01-21T11:04:37.020Z,98.90
2023-01-21T11:07:40.567Z,98.90
2023-01-21T11:10:42.123Z,98.90
2023-01-21T11:13:46.688Z,98.80
2023-01-21T11:16:49.569Z,98.70
2023-01-21T11:19:57.682Z,98.70
2023-01-21T11:22:59.189Z,99.40
2023-01-21T11:26:15.429Z,98.70
2023-01-21T11:29:18.504Z,97.90
2023-01-21T11:32:24.365Z,98.60
2023-01-21T11:35:25.980Z,98.00
2023-01-21T11:38:34.358Z,98.50
2023-01-21T11:41:36.207Z,97.90
2023-01-21T11:44:49.718Z,98.70
2023-01-21T11:47:51.507Z,98.40
2023-01-21T11:51:06.173Z,98.50
2023-01-21T11:54:07.816Z,98.60
2023-01-21T11:57:29.658Z,98.60
2023-01-21T12:00:32.380Z,98.60
2023-01-21T12:03:33.953Z,98.50
2023-01-21T12:06:37.097Z,98.80
2023-01-21T12:09:38.636Z,98.50
2023-01-21T12:13:01.006Z,98.60
2023-01-21T12:16:41.106Z,97.30
2023-01-21T12:19:48.423Z,98.00
2023-01-21T12:23:03.174Z,97.80
2023-01-21T12:26:17.254Z,97.80
2023-01-21T12:29:21.940Z,97.80
2023-01-21T12:32:25.154Z,97.80
2023-01-21T12:35:30.036Z,98.40
2023-01-21T12:38:33.400Z,98.50
2023-01-21T12:41:36.730Z,98.40
2023-01-21T12:44:38.188Z,98.50
2023-01-21T12:47:39.718Z,98.40
2023-01-21T12:50:43.900Z,98.30
2023-01-21T12:54:05.746Z,98.50
2023-01-21T12:57:10.483Z,98.00
2023-01-21T13:00:12.534Z,98.00
2023-01-21T13:03:17.100Z,98.10
2023-01-21T13:06:23.964Z,98.10
2023-01-21T13:09:27.429Z,98.60
2023-01-21T13:12:30.352Z,98.80
2023-01-21T13:15:33.077Z,98.60
2023-01-21T13:18:36.018Z,98.60
2023-01-21T13:21:40.296Z,98.60
2023-01-21T13:24:41.764Z,98.10
2023-01-21T13:27:47.956Z,98.90
2023-01-21T13:30:52.367Z,98.60
2023-01-21T13:33:59.641Z,98.00
2023-01-21T13:37:13.424Z,98.60
2023-01-21T13:40:33.740Z,98.00
2023-01-21T13:43:41.320Z,97.90
2023-01-21T13:46:42.798Z,97.90
2023-01-21T13:49:59.633Z,98.40
2023-01-21T13:53:21.151Z,97.90
2023-01-21T13:56:25.629Z,98.00
2023-01-21T13:59:31.337Z,98.00
2023-01-21T14:02:40.141Z,98.70
2023-01-21T14:05:46.102Z,97.90
2023-01-21T14:08:53.454Z,98.60
2023-01-21T14:12:01.276Z,98.60
2023-01-21T14:15:02.971Z,97.90
2023-01-21T14:18:07.540Z,98.40
2023-01-21T14:21:09.641Z,97.70
2023-01-21T14:24:23.316Z,98.20
2023-01-21T14:27:27.819Z,97.50
2023-01-21T14:30:47.566Z,97.50
2023-01-21T14:34:00.458Z,97.50
2023-01-21T14:37:01.907Z,97.70
2023-01-21T14:40:23.704Z,98.50
2023-01-21T14:43:31.679Z,98.50
2023-01-21T14:46:33.838Z,97.60
2023-01-21T14:49:40.759Z,98.30
2023-01-21T14:52:43.790Z,97.60
2023-01-21T14:55:45.318Z,98.20
2023-01-21T14:58:47.795Z,98.40
2023-01-21T15:01:49.715Z,98.40
2023-01-21T15:05:15.505Z,98.30
2023-01-21T15:08:23.066Z,97.60
2023-01-21T15:11:38.141Z,98.30
2023-01-21T15:14:41.716Z,97.70
2023-01-21T15:17:43.327Z,98.30
2023-01-21T15:20:46.937Z,98.30
2023-01-21T15:23:49.887Z,98.30
2023-01-21T15:27:11.753Z,98.30
2023-01-21T15:30:25.262Z,98.40
2023-01-21T15:33:27.522Z,97.70
2023-01-21T15:36:34.772Z,98.40
2023-01-21T15:39:36.731Z,97.70
2023-01-21T15:42:50.132Z,98.40
2023-01-21T15:46:09.757Z,97.60
2023-01-21T15:49:30.589Z,97.70
2023-01-21T15:52:42.410Z,97.80
2023-01-21T15:56:05.999Z,97.70
2023-01-21T15:59:16.884Z,97.80
2023-01-21T16:02:26.422Z,97.80
2023-01-21T16:05:33.195Z,97.80
2023-01-21T16:08:42.762Z,98.20
2023-01-21T16:11:59.253Z,98.50
2023-01-21T16:15:07.034Z,98.00
2023-01-21T16:18:15.165Z,98.70
2023-01-21T16:21:21.037Z,98.00
2023-01-21T16:24:25.298Z,98.00
2023-01-21T16:27:28.122Z,98.60
2023-01-21T16:30:30.944Z,98.60
2023-01-21T16:33:32.589Z,98.70
2023-01-21T16:36:37.563Z,98.60
2023-01-21T16:39:39.668Z,98.60
2023-01-21T16:42:41.595Z,98.80
2023-01-21T16:45:47.936Z,98.50
2023-01-21T16:48:53.366Z,98.90
2023-01-21T16:51:59.683Z,98.50
2023-01-21T16:55:01.177Z,98.00
2023-01-21T16:58:03.785Z,98.70
2023-01-21T17:01:06.088Z,98.80
2023-01-21T17:04:08.801Z,98.70
2023-01-21T17:07:19.534Z,98.80
2023-01-21T17:10:23.033Z,98.40
2023-01-21T17:13:24.800Z,99.00
2023-01-21T17:16:30.789Z,98.50
2023-01-21T17:19:36.852Z,99.00
2023-01-21T17:22:41.204Z,98.20
2023-01-21T17:25:43.127Z,98.80
2023-01-21T17:28:45.723Z,98.80
2023-01-21T17:31:57.927Z,98.70
2023-01-21T17:35:13.080Z,98.20
2023-01-21T17:38:28.933Z,98.20
2023-01-21T17:41:32.384Z,98.70
2023-01-21T17:44:34.358Z,98.70
2023-01-21T17:47:54.174Z,98.70
2023-01-21T17:51:06.372Z,98.80
2023-01-21T17:54:20.830Z,97.50
2023-01-21T17:57:42.562Z,98.60
2023-01-21T18:00:45.010Z,98.60
2023-01-21T18:03:46.724Z,98.70
2023-01-21T18:06:50.637Z,98.60
2023-01-21T18:09:52.743Z,98.50
2023-01-21T18:12:54.460Z,98.50
2023-01-21T18:15:56.085Z,98.50
2023-01-21T18:18:57.626Z,98.60
2023-01-21T18:21:59.689Z,98.30
2023-01-21T18:25:02.806Z,98.40
2023-01-21T18:28:06.299Z,98.40
2023-01-21T18:31:09.756Z,98.40
2023-01-21T18:34:12.077Z,98.60
2023-01-21T18:37:14.543Z,98.60
2023-01-21T18:40:18.274Z,98.70
2023-01-21T18:43:19.783Z,98.60
2023-01-21T18:46:21.419Z,98.60
2023-01-21T18:49:23.115Z,98.50
2023-01-21T18:52:27.071Z,98.50
2023-01-21T18:55:28.975Z,98.60
2023-01-21T18:58:30.457Z,98.50
2023-01-21T19:01:32.055Z,98.50
2023-01-21T19:04:34.626Z,98.50
2023-01-21T19:07:36.118Z,98.00
2023-01-21T19:10:37.631Z,98.60
2023-01-21T19:13:39.202Z,98.50
2023-01-21T19:16:41.249Z,98.80
2023-01-21T19:19:42.778Z,98.60
2023-01-21T19:22:44.681Z,98.70
2023-01-21T19:26:04.275Z,98.50
2023-01-21T19:29:07.609Z,97.90
2023-01-21T19:32:15.406Z,98.90
2023-01-21T19:35:17.849Z,97.90
2023-01-21T19:38:21.147Z,98.60
2023-01-21T19:41:22.638Z,98.70
2023-01-21T19:44:24.164Z,98.60
2023-01-21T19:47:30.651Z,98.50
2023-01-21T19:50:32.173Z,98.70
2023-01-21T19:53:33.705Z,98.70
2023-01-21T19:56:35.245Z,98.60
2023-01-21T19:59:38.067Z,98.60
2023-01-21T20:02:39.818Z,98.70
2023-01-21T20:05:41.420Z,98.70
2023-01-21T20:08:43.610Z,98.70
2023-01-21T20:11:45.128Z,98.70
2023-01-21T20:14:46.629Z,98.60
2023-01-21T20:17:50.302Z,98.70
2023-01-21T20:20:52.705Z,98.90
2023-01-21T20:23:54.180Z,98.80
2023-01-21T20:26:55.709Z,98.80
2023-01-21T20:30:14.898Z,98.70
2023-01-21T20:33:19.262Z,98.70
2023-01-21T20:36:24.831Z,98.80
2023-01-21T20:39:26.431Z,98.20
2023-01-21T20:42:28.097Z,98.80
2023-01-21T20:45:31.683Z,98.70
2023-01-21T20:48:34.740Z,98.40
2023-01-21T20:51:36.431Z,98.70
2023-01-21T20:54:37.954Z,98.30
2023-01-21T20:57:39.879Z,98.60
2023-01-21T21:00:42.993Z,98.70
2023-01-21T21:03:44.529Z,98.70
2023-01-21T21:06:46.064Z,98.70
2023-01-21T21:09:48.888Z,98.60
2023-01-21T21:12:50.581Z,98.50
2023-01-21T21:15:52.988Z,98.50
2023-01-21T21:18:56.038Z,98.60
2023-01-21T21:21:57.603Z,98.60
2023-01-21T21:24:59.188Z,98.90
2023-01-21T21:28:00.670Z,98.40
2023-01-21T21:31:02.247Z,98.40
2023-01-21T21:34:03.782Z,98.50
2023-01-21T21:37:05.428Z,98.50
2023-01-21T21:40:07.601Z,98.70
2023-01-21T21:43:31.492Z,98.20
2023-01-21T21:46:51.608Z,98.50
2023-01-21T21:49:53.131Z,98.00
2023-01-21T21:52:54.701Z,98.50
2023-01-21T21:56:00.751Z,98.60
2023-01-21T21:59:02.700Z,98.50
2023-01-21T22:02:06.345Z,98.60
2023-01-21T22:05:11.297Z,98.70
2023-01-21T22:08:15.716Z,98.40
2023-01-21T22:11:18.732Z,98.80
2023-01-21T22:14:20.217Z,98.70
2023-01-21T22:17:21.695Z,98.70
2023-01-21T22:20:23.217Z,98.80
2023-01-21T22:23:24.742Z,98.80
2023-01-21T22:26:26.513Z,98.90
2023-01-21T22:29:29.436Z,99.00
2023-01-21T22:32:30.929Z,99.30
2023-01-21T22:35:32.399Z,99.10
2023-01-21T22:38:34.375Z,99.30
2023-01-21T22:41:35.880Z,99.30
2023-01-21T22:44:37.543Z,99.40
2023-01-21T22:47:39.023Z,99.40
2023-01-21T22:50:41.394Z,99.50
2023-01-21T22:53:46.070Z,99.60
2023-01-21T22:56:52.936Z,99.10
2023-01-21T22:59:54.655Z,99.50
2023-01-21T23:02:56.118Z,99.40
2023-01-21T23:06:05.001Z,99.50
2023-01-21T23:09:09.293Z,98.80
2023-01-21T23:12:18.613Z,99.50
2023-01-21T23:15:21.018Z,99.60
2023-01-21T23:18:22.818Z,99.20
2023-01-21T23:21:24.319Z,99.10
2023-01-21T23:24:25.845Z,98.90
2023-01-21T23:27:27.357Z,98.70
2023-01-21T23:30:29.984Z,98.70
2023-01-21T23:33:32.442Z,98.70
2023-01-21T23:36:33.903Z,98.70
2023-01-21T23:39:35.406Z,98.60
2023-01-21T23:42:36.937Z,98.50
2023-01-21T23:45:38.747Z,98.50
2023-01-21T23:48:40.232Z,98.60
2023-01-21T23:51:41.691Z,98.40
2023-01-21T23:54:46.256Z,98.50
2023-01-21T23:57:47.748Z,97.90
